sensor_id;sensor_type;location;lat;lon;timestamp;P1;durP1;ratioP1;P2;durP2;ratioP2
4597;SDS011;62772;48.646;8.906;2023-08-07T00:04:05;5.07;;;2.47;;
4597;SDS011;62772;48.646;8.906;2023-08-07T00:09:06;4.30;;;2.30;;
4597;SDS011;62772;48.646;8.906;2023-08-07T00:14:07;4.60;;;2.50;;
4597;SDS011;62772;48.646;8.906;2023-08-07T00:19:07;4.70;;;2.80;;
4597;SDS011;62772;48.646;8.906;2023-08-07T00:24:08;3.80;;;2.30;;
4597;SDS011;62772;48.646;8.906;2023-08-07T00:29:08;4.50;;;2.70;;
4597;SDS011;62772;48.646;8.906;2023-08-07T00:34:09;4.03;;;2.50;;
4597;SDS011;62772;48.646;8.906;2023-08-07T00:39:09;5.10;;;2.83;;
4597;SDS011;62772;48.646;8.906;2023-08-07T00:44:13;5.07;;;2.63;;
4597;SDS011;62772;48.646;8.906;2023-08-07T00:49:14;6.20;;;2.43;;
4597;SDS011;62772;48.646;8.906;2023-08-07T00:54:15;4.67;;;2.50;;
4597;SDS011;62772;48.646;8.906;2023-08-07T00:59:18;4.83;;;2.80;;
4597;SDS011;62772;48.646;8.906;2023-08-07T01:04:19;4.17;;;2.57;;
4597;SDS011;62772;48.646;8.906;2023-08-07T01:09:21;7.60;;;2.50;;
4597;SDS011;62772;48.646;8.906;2023-08-07T01:19:50;4.57;;;2.70;;
4597;SDS011;62772;48.646;8.906;2023-08-07T01:24:52;6.77;;;2.30;;
4597;SDS011;62772;48.646;8.906;2023-08-07T01:29:59;5.80;;;2.50;;
4597;SDS011;62772;48.646;8.906;2023-08-07T01:35:02;3.77;;;2.33;;
4597;SDS011;62772;48.646;8.906;2023-08-07T01:40:05;6.00;;;2.60;;
4597;SDS011;62772;48.646;8.906;2023-08-07T01:45:07;5.50;;;3.30;;
4597;SDS011;62772;48.646;8.906;2023-08-07T01:50:08;5.23;;;2.67;;
4597;SDS011;62772;48.646;8.906;2023-08-07T01:55:09;4.70;;;2.80;;
4597;SDS011;62772;48.646;8.906;2023-08-07T02:00:09;6.70;;;2.60;;
4597;SDS011;62772;48.646;8.906;2023-08-07T02:05:15;4.33;;;2.53;;
4597;SDS011;62772;48.646;8.906;2023-08-07T02:10:16;4.90;;;2.77;;
4597;SDS011;62772;48.646;8.906;2023-08-07T02:15:16;5.77;;;2.60;;
4597;SDS011;62772;48.646;8.906;2023-08-07T02:20:18;4.00;;;2.40;;
4597;SDS011;62772;48.646;8.906;2023-08-07T02:25:19;12.10;;;3.17;;
4597;SDS011;62772;48.646;8.906;2023-08-07T02:30:19;3.70;;;2.20;;
4597;SDS011;62772;48.646;8.906;2023-08-07T02:35:20;5.20;;;2.50;;
4597;SDS011;62772;48.646;8.906;2023-08-07T02:40:20;5.27;;;3.00;;
4597;SDS011;62772;48.646;8.906;2023-08-07T02:45:21;5.17;;;2.60;;
4597;SDS011;62772;48.646;8.906;2023-08-07T02:50:21;3.40;;;2.20;;
4597;SDS011;62772;48.646;8.906;2023-08-07T02:55:21;5.83;;;2.70;;
4597;SDS011;62772;48.646;8.906;2023-08-07T03:00:22;5.67;;;2.77;;
4597;SDS011;62772;48.646;8.906;2023-08-07T03:05:22;5.63;;;2.50;;
4597;SDS011;62772;48.646;8.906;2023-08-07T03:10:23;4.63;;;2.70;;
4597;SDS011;62772;48.646;8.906;2023-08-07T03:15:23;6.83;;;3.00;;
4597;SDS011;62772;48.646;8.906;2023-08-07T03:20:24;5.93;;;2.70;;
4597;SDS011;62772;48.646;8.906;2023-08-07T03:25:24;6.73;;;2.63;;
4597;SDS011;62772;48.646;8.906;2023-08-07T03:30:25;7.60;;;2.77;;
4597;SDS011;62772;48.646;8.906;2023-08-07T03:35:26;4.93;;;2.63;;
4597;SDS011;62772;48.646;8.906;2023-08-07T03:40:27;6.13;;;2.87;;
4597;SDS011;62772;48.646;8.906;2023-08-07T03:45:28;6.67;;;3.23;;
4597;SDS011;62772;48.646;8.906;2023-08-07T03:50:28;5.10;;;2.30;;
4597;SDS011;62772;48.646;8.906;2023-08-07T03:55:31;6.00;;;2.37;;
4597;SDS011;62772;48.646;8.906;2023-08-07T04:00:32;6.70;;;2.73;;
4597;SDS011;62772;48.646;8.906;2023-08-07T04:05:33;6.50;;;2.70;;
4597;SDS011;62772;48.646;8.906;2023-08-07T04:10:35;5.40;;;2.90;;
4597;SDS011;62772;48.646;8.906;2023-08-07T04:15:35;4.23;;;2.53;;
4597;SDS011;62772;48.646;8.906;2023-08-07T04:20:35;5.90;;;2.80;;
4597;SDS011;62772;48.646;8.906;2023-08-07T04:25:36;8.83;;;3.10;;
4597;SDS011;62772;48.646;8.906;2023-08-07T04:30:36;3.87;;;2.60;;
4597;SDS011;62772;48.646;8.906;2023-08-07T04:35:37;5.47;;;2.70;;
4597;SDS011;62772;48.646;8.906;2023-08-07T04:40:37;5.23;;;2.87;;
4597;SDS011;62772;48.646;8.906;2023-08-07T04:45:38;4.80;;;3.07;;
4597;SDS011;62772;48.646;8.906;2023-08-07T04:50:39;11.33;;;2.67;;
4597;SDS011;62772;48.646;8.906;2023-08-07T04:55:40;8.07;;;3.30;;
4597;SDS011;62772;48.646;8.906;2023-08-07T05:00:40;5.40;;;2.80;;
4597;SDS011;62772;48.646;8.906;2023-08-07T05:05:41;5.63;;;3.17;;
4597;SDS011;62772;48.646;8.906;2023-08-07T05:10:41;4.60;;;2.60;;
4597;SDS011;62772;48.646;8.906;2023-08-07T05:15:42;5.67;;;2.70;;
4597;SDS011;62772;48.646;8.906;2023-08-07T05:20:42;5.93;;;2.83;;
4597;SDS011;62772;48.646;8.906;2023-08-07T05:25:46;5.03;;;2.70;;
4597;SDS011;62772;48.646;8.906;2023-08-07T05:30:47;5.03;;;2.80;;
4597;SDS011;62772;48.646;8.906;2023-08-07T05:35:47;4.07;;;2.97;;
4597;SDS011;62772;48.646;8.906;2023-08-07T05:40:48;4.90;;;2.60;;
4597;SDS011;62772;48.646;8.906;2023-08-07T05:45:48;5.70;;;3.10;;
4597;SDS011;62772;48.646;8.906;2023-08-07T05:50:50;5.20;;;2.70;;
4597;SDS011;62772;48.646;8.906;2023-08-07T05:55:51;5.40;;;3.07;;
4597;SDS011;62772;48.646;8.906;2023-08-07T06:00:51;5.47;;;3.20;;
4597;SDS011;62772;48.646;8.906;2023-08-07T06:05:52;5.10;;;2.83;;
4597;SDS011;62772;48.646;8.906;2023-08-07T06:10:52;5.13;;;3.00;;
4597;SDS011;62772;48.646;8.906;2023-08-07T06:15:53;5.00;;;2.60;;
4597;SDS011;62772;48.646;8.906;2023-08-07T06:20:54;5.57;;;3.20;;
4597;SDS011;62772;48.646;8.906;2023-08-07T06:25:55;5.07;;;2.93;;
4597;SDS011;62772;48.646;8.906;2023-08-07T06:31:00;6.37;;;2.67;;
4597;SDS011;62772;48.646;8.906;2023-08-07T06:36:02;3.70;;;2.40;;
4597;SDS011;62772;48.646;8.906;2023-08-07T06:41:05;5.57;;;3.10;;
4597;SDS011;62772;48.646;8.906;2023-08-07T06:46:05;4.50;;;2.80;;
4597;SDS011;62772;48.646;8.906;2023-08-07T06:51:05;12.70;;;2.90;;
4597;SDS011;62772;48.646;8.906;2023-08-07T06:56:06;4.00;;;2.63;;
4597;SDS011;62772;48.646;8.906;2023-08-07T07:01:06;6.80;;;2.83;;
4597;SDS011;62772;48.646;8.906;2023-08-07T07:06:07;9.17;;;3.07;;
4597;SDS011;62772;48.646;8.906;2023-08-07T07:11:08;4.80;;;3.10;;
4597;SDS011;62772;48.646;8.906;2023-08-07T07:16:09;5.57;;;2.90;;
4597;SDS011;62772;48.646;8.906;2023-08-07T07:21:11;5.10;;;2.90;;
4597;SDS011;62772;48.646;8.906;2023-08-07T07:26:12;7.00;;;2.70;;
4597;SDS011;62772;48.646;8.906;2023-08-07T07:31:12;5.33;;;2.77;;
4597;SDS011;62772;48.646;8.906;2023-08-07T07:36:14;3.80;;;2.20;;
4597;SDS011;62772;48.646;8.906;2023-08-07T07:41:16;5.50;;;3.00;;
4597;SDS011;62772;48.646;8.906;2023-08-07T07:46:17;5.97;;;2.70;;
4597;SDS011;62772;48.646;8.906;2023-08-07T07:51:17;4.40;;;3.00;;
4597;SDS011;62772;48.646;8.906;2023-08-07T07:56:18;4.47;;;2.40;;
4597;SDS011;62772;48.646;8.906;2023-08-07T08:01:18;4.60;;;2.43;;
4597;SDS011;62772;48.646;8.906;2023-08-07T08:06:19;6.70;;;2.70;;
4597;SDS011;62772;48.646;8.906;2023-08-07T08:11:19;3.90;;;2.40;;
4597;SDS011;62772;48.646;8.906;2023-08-07T08:16:20;3.70;;;2.40;;
4597;SDS011;62772;48.646;8.906;2023-08-07T08:21:20;3.70;;;2.10;;
4597;SDS011;62772;48.646;8.906;2023-08-07T08:26:21;4.80;;;2.50;;
4597;SDS011;62772;48.646;8.906;2023-08-07T08:31:21;6.40;;;2.00;;
4597;SDS011;62772;48.646;8.906;2023-08-07T08:36:23;6.60;;;1.93;;
4597;SDS011;62772;48.646;8.906;2023-08-07T08:41:24;3.27;;;2.10;;
4597;SDS011;62772;48.646;8.906;2023-08-07T08:46:26;3.97;;;2.33;;
4597;SDS011;62772;48.646;8.906;2023-08-07T08:51:29;3.10;;;1.87;;
4597;SDS011;62772;48.646;8.906;2023-08-07T08:56:30;4.83;;;2.07;;
4597;SDS011;62772;48.646;8.906;2023-08-07T09:01:31;5.70;;;2.43;;
4597;SDS011;62772;48.646;8.906;2023-08-07T09:06:32;3.53;;;2.20;;
4597;SDS011;62772;48.646;8.906;2023-08-07T09:11:33;3.70;;;2.10;;
4597;SDS011;62772;48.646;8.906;2023-08-07T09:16:34;4.23;;;2.10;;
4597;SDS011;62772;48.646;8.906;2023-08-07T09:21:36;2.53;;;1.87;;
4597;SDS011;62772;48.646;8.906;2023-08-07T09:26:36;3.23;;;1.83;;
4597;SDS011;62772;48.646;8.906;2023-08-07T09:31:45;3.30;;;1.90;;
4597;SDS011;62772;48.646;8.906;2023-08-07T09:36:46;3.73;;;2.07;;
4597;SDS011;62772;48.646;8.906;2023-08-07T09:41:50;3.13;;;1.90;;
4597;SDS011;62772;48.646;8.906;2023-08-07T09:46:51;2.90;;;1.87;;
4597;SDS011;62772;48.646;8.906;2023-08-07T09:51:51;5.67;;;2.20;;
4597;SDS011;62772;48.646;8.906;2023-08-07T09:56:54;3.83;;;2.30;;
4597;SDS011;62772;48.646;8.906;2023-08-07T10:01:56;3.23;;;2.00;;
4597;SDS011;62772;48.646;8.906;2023-08-07T10:06:57;4.73;;;2.20;;
4597;SDS011;62772;48.646;8.906;2023-08-07T10:11:58;3.90;;;2.20;;
4597;SDS011;62772;48.646;8.906;2023-08-07T10:17:00;2.90;;;2.00;;
4597;SDS011;62772;48.646;8.906;2023-08-07T10:22:01;4.30;;;2.30;;
4597;SDS011;62772;48.646;8.906;2023-08-07T10:27:03;6.63;;;2.60;;
4597;SDS011;62772;48.646;8.906;2023-08-07T10:32:05;3.90;;;2.33;;
4597;SDS011;62772;48.646;8.906;2023-08-07T10:37:08;4.20;;;2.40;;
4597;SDS011;62772;48.646;8.906;2023-08-07T10:42:08;3.43;;;2.20;;
4597;SDS011;62772;48.646;8.906;2023-08-07T10:47:11;4.13;;;2.40;;
4597;SDS011;62772;48.646;8.906;2023-08-07T10:52:13;5.67;;;2.30;;
4597;SDS011;62772;48.646;8.906;2023-08-07T10:57:16;3.80;;;2.50;;
4597;SDS011;62772;48.646;8.906;2023-08-07T11:02:24;3.00;;;1.97;;
4597;SDS011;62772;48.646;8.906;2023-08-07T11:07:26;3.47;;;2.20;;
4597;SDS011;62772;48.646;8.906;2023-08-07T11:12:29;3.67;;;2.23;;
4597;SDS011;62772;48.646;8.906;2023-08-07T11:17:30;4.60;;;2.40;;
4597;SDS011;62772;48.646;8.906;2023-08-07T11:22:30;3.43;;;2.30;;
4597;SDS011;62772;48.646;8.906;2023-08-07T11:27:31;4.90;;;2.37;;
4597;SDS011;62772;48.646;8.906;2023-08-07T11:32:31;3.87;;;2.13;;
4597;SDS011;62772;48.646;8.906;2023-08-07T11:37:32;3.97;;;2.20;;
4597;SDS011;62772;48.646;8.906;2023-08-07T11:42:32;5.03;;;2.40;;
4597;SDS011;62772;48.646;8.906;2023-08-07T11:47:33;4.80;;;1.97;;
4597;SDS011;62772;48.646;8.906;2023-08-07T11:52:33;3.07;;;2.00;;
4597;SDS011;62772;48.646;8.906;2023-08-07T11:57:34;3.20;;;2.00;;
4597;SDS011;62772;48.646;8.906;2023-08-07T12:02:38;3.97;;;2.10;;
4597;SDS011;62772;48.646;8.906;2023-08-07T12:07:41;3.83;;;2.07;;
4597;SDS011;62772;48.646;8.906;2023-08-07T12:12:42;3.80;;;2.17;;
4597;SDS011;62772;48.646;8.906;2023-08-07T12:17:43;4.50;;;2.17;;
4597;SDS011;62772;48.646;8.906;2023-08-07T12:22:43;4.73;;;2.40;;
4597;SDS011;62772;48.646;8.906;2023-08-07T12:27:44;3.13;;;2.10;;
4597;SDS011;62772;48.646;8.906;2023-08-07T12:32:47;5.33;;;2.10;;
4597;SDS011;62772;48.646;8.906;2023-08-07T12:37:47;4.57;;;2.27;;
4597;SDS011;62772;48.646;8.906;2023-08-07T12:42:51;5.13;;;2.63;;
4597;SDS011;62772;48.646;8.906;2023-08-07T12:47:52;3.50;;;2.47;;
4597;SDS011;62772;48.646;8.906;2023-08-07T12:52:52;5.50;;;2.90;;
4597;SDS011;62772;48.646;8.906;2023-08-07T12:57:53;4.53;;;2.60;;
4597;SDS011;62772;48.646;8.906;2023-08-07T13:02:54;6.00;;;2.57;;
4597;SDS011;62772;48.646;8.906;2023-08-07T13:07:58;3.73;;;2.30;;
4597;SDS011;62772;48.646;8.906;2023-08-07T13:12:59;3.60;;;2.13;;
4597;SDS011;62772;48.646;8.906;2023-08-07T13:18:01;3.50;;;2.17;;
4597;SDS011;62772;48.646;8.906;2023-08-07T13:23:03;5.83;;;2.30;;
4597;SDS011;62772;48.646;8.906;2023-08-07T13:28:06;3.77;;;2.37;;
4597;SDS011;62772;48.646;8.906;2023-08-07T13:33:06;7.27;;;2.50;;
4597;SDS011;62772;48.646;8.906;2023-08-07T13:38:07;4.80;;;2.80;;
4597;SDS011;62772;48.646;8.906;2023-08-07T13:43:10;3.43;;;2.40;;
4597;SDS011;62772;48.646;8.906;2023-08-07T13:48:10;3.87;;;2.20;;
4597;SDS011;62772;48.646;8.906;2023-08-07T13:53:10;3.57;;;2.33;;
4597;SDS011;62772;48.646;8.906;2023-08-07T13:58:11;5.23;;;2.67;;
4597;SDS011;62772;48.646;8.906;2023-08-07T14:03:15;4.87;;;2.37;;
4597;SDS011;62772;48.646;8.906;2023-08-07T14:08:16;4.70;;;2.30;;
4597;SDS011;62772;48.646;8.906;2023-08-07T14:13:16;3.40;;;2.07;;
4597;SDS011;62772;48.646;8.906;2023-08-07T14:18:16;3.73;;;2.00;;
4597;SDS011;62772;48.646;8.906;2023-08-07T14:23:17;4.93;;;2.17;;
4597;SDS011;62772;48.646;8.906;2023-08-07T14:28:18;5.93;;;2.70;;
4597;SDS011;62772;48.646;8.906;2023-08-07T14:33:19;3.40;;;2.17;;
4597;SDS011;62772;48.646;8.906;2023-08-07T14:38:19;3.70;;;2.43;;
4597;SDS011;62772;48.646;8.906;2023-08-07T14:43:20;4.37;;;2.50;;
4597;SDS011;62772;48.646;8.906;2023-08-07T14:48:20;3.43;;;2.23;;
4597;SDS011;62772;48.646;8.906;2023-08-07T14:53:20;4.73;;;2.23;;
4597;SDS011;62772;48.646;8.906;2023-08-07T14:58:21;3.63;;;2.33;;
4597;SDS011;62772;48.646;8.906;2023-08-07T15:03:21;3.63;;;2.30;;
4597;SDS011;62772;48.646;8.906;2023-08-07T15:08:22;3.73;;;2.60;;
4597;SDS011;62772;48.646;8.906;2023-08-07T15:13:22;3.77;;;2.40;;
4597;SDS011;62772;48.646;8.906;2023-08-07T15:18:23;4.27;;;2.40;;
4597;SDS011;62772;48.646;8.906;2023-08-07T15:23:24;7.07;;;2.30;;
4597;SDS011;62772;48.646;8.906;2023-08-07T15:28:24;4.27;;;2.57;;
4597;SDS011;62772;48.646;8.906;2023-08-07T15:33:25;6.03;;;2.20;;
4597;SDS011;62772;48.646;8.906;2023-08-07T15:38:26;4.20;;;2.87;;
4597;SDS011;62772;48.646;8.906;2023-08-07T15:43:28;5.50;;;2.40;;
4597;SDS011;62772;48.646;8.906;2023-08-07T15:48:28;3.50;;;2.13;;
4597;SDS011;62772;48.646;8.906;2023-08-07T15:53:29;2.93;;;1.90;;
4597;SDS011;62772;48.646;8.906;2023-08-07T15:58:30;4.50;;;2.40;;
4597;SDS011;62772;48.646;8.906;2023-08-07T16:03:31;3.77;;;2.13;;
4597;SDS011;62772;48.646;8.906;2023-08-07T16:08:31;5.07;;;2.37;;
4597;SDS011;62772;48.646;8.906;2023-08-07T16:13:32;4.50;;;2.30;;
4597;SDS011;62772;48.646;8.906;2023-08-07T16:18:32;3.37;;;2.13;;
4597;SDS011;62772;48.646;8.906;2023-08-07T16:23:33;3.60;;;2.27;;
4597;SDS011;62772;48.646;8.906;2023-08-07T16:28:33;3.30;;;2.20;;
4597;SDS011;62772;48.646;8.906;2023-08-07T16:33:34;3.77;;;2.57;;
4597;SDS011;62772;48.646;8.906;2023-08-07T16:38:34;3.90;;;2.00;;
4597;SDS011;62772;48.646;8.906;2023-08-07T16:43:35;3.50;;;2.37;;
4597;SDS011;62772;48.646;8.906;2023-08-07T16:48:35;3.80;;;2.37;;
4597;SDS011;62772;48.646;8.906;2023-08-07T16:53:36;3.57;;;2.33;;
4597;SDS011;62772;48.646;8.906;2023-08-07T16:58:36;3.50;;;2.20;;
4597;SDS011;62772;48.646;8.906;2023-08-07T17:03:39;3.47;;;2.30;;
4597;SDS011;62772;48.646;8.906;2023-08-07T17:08:40;3.60;;;2.30;;
4597;SDS011;62772;48.646;8.906;2023-08-07T17:13:40;3.70;;;2.20;;
4597;SDS011;62772;48.646;8.906;2023-08-07T17:18:41;3.60;;;2.07;;
4597;SDS011;62772;48.646;8.906;2023-08-07T17:23:41;3.17;;;2.10;;
4597;SDS011;62772;48.646;8.906;2023-08-07T17:28:44;3.57;;;2.20;;
4597;SDS011;62772;48.646;8.906;2023-08-07T17:33:45;3.43;;;1.80;;
4597;SDS011;62772;48.646;8.906;2023-08-07T17:38:46;4.23;;;2.20;;
4597;SDS011;62772;48.646;8.906;2023-08-07T17:43:46;3.23;;;2.10;;
4597;SDS011;62772;48.646;8.906;2023-08-07T17:48:46;4.57;;;2.43;;
4597;SDS011;62772;48.646;8.906;2023-08-07T17:53:47;3.70;;;2.13;;
4597;SDS011;62772;48.646;8.906;2023-08-07T17:58:47;4.30;;;2.33;;
4597;SDS011;62772;48.646;8.906;2023-08-07T18:03:48;3.73;;;2.40;;
4597;SDS011;62772;48.646;8.906;2023-08-07T18:08:49;3.30;;;2.10;;
4597;SDS011;62772;48.646;8.906;2023-08-07T18:13:49;5.93;;;2.37;;
4597;SDS011;62772;48.646;8.906;2023-08-07T18:18:49;3.43;;;2.17;;
4597;SDS011;62772;48.646;8.906;2023-08-07T18:23:50;3.03;;;2.30;;
4597;SDS011;62772;48.646;8.906;2023-08-07T18:28:51;3.13;;;2.13;;
4597;SDS011;62772;48.646;8.906;2023-08-07T18:33:51;3.43;;;2.20;;
4597;SDS011;62772;48.646;8.906;2023-08-07T18:38:52;4.00;;;2.30;;
4597;SDS011;62772;48.646;8.906;2023-08-07T18:43:52;3.03;;;1.87;;
4597;SDS011;62772;48.646;8.906;2023-08-07T18:48:53;4.43;;;2.40;;
4597;SDS011;62772;48.646;8.906;2023-08-07T18:53:54;3.50;;;2.30;;
4597;SDS011;62772;48.646;8.906;2023-08-07T18:58:55;6.43;;;2.63;;
4597;SDS011;62772;48.646;8.906;2023-08-07T19:03:56;3.90;;;2.20;;
4597;SDS011;62772;48.646;8.906;2023-08-07T19:08:56;4.03;;;2.30;;
4597;SDS011;62772;48.646;8.906;2023-08-07T19:13:57;3.83;;;2.40;;
4597;SDS011;62772;48.646;8.906;2023-08-07T19:18:57;5.90;;;2.73;;
4597;SDS011;62772;48.646;8.906;2023-08-07T19:23:58;3.70;;;2.50;;
4597;SDS011;62772;48.646;8.906;2023-08-07T19:28:58;3.73;;;2.33;;
4597;SDS011;62772;48.646;8.906;2023-08-07T19:33:58;4.97;;;2.60;;
4597;SDS011;62772;48.646;8.906;2023-08-07T19:38:59;5.17;;;3.20;;
4597;SDS011;62772;48.646;8.906;2023-08-07T19:43:59;5.90;;;3.43;;
4597;SDS011;62772;48.646;8.906;2023-08-07T19:49:00;8.07;;;3.63;;
4597;SDS011;62772;48.646;8.906;2023-08-07T19:54:00;6.43;;;3.60;;
4597;SDS011;62772;48.646;8.906;2023-08-07T19:59:01;6.40;;;3.90;;
4597;SDS011;62772;48.646;8.906;2023-08-07T20:04:02;4.63;;;3.20;;
4597;SDS011;62772;48.646;8.906;2023-08-07T20:09:09;6.93;;;3.13;;
4597;SDS011;62772;48.646;8.906;2023-08-07T20:14:09;4.00;;;2.63;;
4597;SDS011;62772;48.646;8.906;2023-08-07T20:19:10;4.47;;;3.10;;
4597;SDS011;62772;48.646;8.906;2023-08-07T20:24:10;4.23;;;2.93;;
4597;SDS011;62772;48.646;8.906;2023-08-07T20:29:11;4.87;;;3.27;;
4597;SDS011;62772;48.646;8.906;2023-08-07T20:34:11;7.63;;;3.50;;
4597;SDS011;62772;48.646;8.906;2023-08-07T20:39:12;4.60;;;2.87;;
4597;SDS011;62772;48.646;8.906;2023-08-07T20:44:13;4.30;;;2.90;;
4597;SDS011;62772;48.646;8.906;2023-08-07T20:49:14;5.77;;;3.17;;
4597;SDS011;62772;48.646;8.906;2023-08-07T20:54:14;5.20;;;3.17;;
4597;SDS011;62772;48.646;8.906;2023-08-07T20:59:14;6.03;;;3.00;;
4597;SDS011;62772;48.646;8.906;2023-08-07T21:04:15;5.40;;;3.30;;
4597;SDS011;62772;48.646;8.906;2023-08-07T21:09:16;4.43;;;2.90;;
4597;SDS011;62772;48.646;8.906;2023-08-07T21:14:16;4.80;;;2.93;;
4597;SDS011;62772;48.646;8.906;2023-08-07T21:19:17;4.73;;;3.00;;
4597;SDS011;62772;48.646;8.906;2023-08-07T21:24:17;5.00;;;2.57;;
4597;SDS011;62772;48.646;8.906;2023-08-07T21:29:17;4.70;;;2.57;;
4597;SDS011;62772;48.646;8.906;2023-08-07T21:34:18;3.97;;;2.57;;
4597;SDS011;62772;48.646;8.906;2023-08-07T21:39:18;5.17;;;2.73;;
4597;SDS011;62772;48.646;8.906;2023-08-07T21:44:19;6.23;;;3.07;;
4597;SDS011;62772;48.646;8.906;2023-08-07T21:49:20;4.03;;;2.63;;
4597;SDS011;62772;48.646;8.906;2023-08-07T21:54:20;5.93;;;3.03;;
4597;SDS011;62772;48.646;8.906;2023-08-07T21:59:20;5.93;;;3.43;;
4597;SDS011;62772;48.646;8.906;2023-08-07T22:04:21;4.60;;;2.80;;
4597;SDS011;62772;48.646;8.906;2023-08-07T22:09:21;6.27;;;2.83;;
4597;SDS011;62772;48.646;8.906;2023-08-07T22:14:22;5.20;;;2.80;;
4597;SDS011;62772;48.646;8.906;2023-08-07T22:19:22;4.60;;;2.67;;
4597;SDS011;62772;48.646;8.906;2023-08-07T22:24:23;4.00;;;2.83;;
4597;SDS011;62772;48.646;8.906;2023-08-07T22:29:23;5.33;;;2.70;;
4597;SDS011;62772;48.646;8.906;2023-08-07T22:34:24;3.87;;;2.70;;
4597;SDS011;62772;48.646;8.906;2023-08-07T22:39:24;4.30;;;2.50;;
4597;SDS011;62772;48.646;8.906;2023-08-07T22:44:25;5.90;;;2.60;;
4597;SDS011;62772;48.646;8.906;2023-08-07T22:49:25;6.73;;;3.47;;
4597;SDS011;62772;48.646;8.906;2023-08-07T22:54:26;4.57;;;2.80;;
4597;SDS011;62772;48.646;8.906;2023-08-07T22:59:26;3.20;;;2.37;;
4597;SDS011;62772;48.646;8.906;2023-08-07T23:04:26;3.53;;;2.30;;
4597;SDS011;62772;48.646;8.906;2023-08-07T23:09:27;3.53;;;2.40;;
4597;SDS011;62772;48.646;8.906;2023-08-07T23:14:27;4.07;;;2.50;;
4597;SDS011;62772;48.646;8.906;2023-08-07T23:19:28;3.80;;;2.40;;
4597;SDS011;62772;48.646;8.906;2023-08-07T23:24:28;6.43;;;2.60;;
4597;SDS011;62772;48.646;8.906;2023-08-07T23:29:29;4.90;;;2.47;;
4597;SDS011;62772;48.646;8.906;2023-08-07T23:34:29;4.30;;;2.50;;
4597;SDS011;62772;48.646;8.906;2023-08-07T23:39:30;6.70;;;2.40;;
4597;SDS011;62772;48.646;8.906;2023-08-07T23:44:30;4.83;;;2.80;;
4597;SDS011;62772;48.646;8.906;2023-08-07T23:49:31;3.97;;;2.70;;
4597;SDS011;62772;48.646;8.906;2023-08-07T23:54:31;5.23;;;2.70;;
4597;SDS011;62772;48.646;8.906;2023-08-07T23:59:32;4.87;;;2.70;;
